createdAt,value
2023-11-24T05:54:07.970Z,0.373
2023-11-24T06:02:58.893Z,0.747
2023-11-24T06:05:57.510Z,1.867
2023-11-24T06:08:35.824Z,2.988
2023-11-24T06:11:19.229Z,4.482
2023-11-24T06:14:28.053Z,8.217
2023-11-24T06:17:11.564Z,15.313
2023-11-24T06:19:44.759Z,26.518
2023-11-24T06:22:17.867Z,33.615
2023-11-24T06:24:51.305Z,55.651
2023-11-24T06:27:24.185Z,78.808
2023-11-24T06:30:02.545Z,102.339
2023-11-24T06:32:35.596Z,135.954
2023-11-24T06:35:18.987Z,162.846
2023-11-24T06:37:57.321Z,167.328
2023-11-24T06:40:35.592Z,173.304
2023-11-24T06:43:24.030Z,209.16
2023-11-24T06:46:17.783Z,369.018
2023-11-24T06:48:55.827Z,439.236
2023-11-24T06:52:04.599Z,496.008
2023-11-24T06:55:13.593Z,549.792
2023-11-24T06:57:51.712Z,615.528
2023-11-24T07:00:24.844Z,531.864
2023-11-24T07:02:57.947Z,615.528
2023-11-24T07:05:46.412Z,663.336
2023-11-24T07:08:39.985Z,770.904
2023-11-24T07:11:18.099Z,890.424
2023-11-24T07:13:50.929Z,1195.2
2023-11-24T07:16:44.445Z,1099.584
2023-11-24T07:19:17.602Z,1308.744
2023-11-24T07:22:21.398Z,1523.88
2023-11-24T07:24:54.376Z,1416.312
2023-11-24T07:28:35.885Z,1733.04
2023-11-24T07:31:09.111Z,2330.64
2023-11-24T07:33:47.327Z,2653.344
2023-11-24T07:36:25.500Z,2725.056
2023-11-24T07:38:58.668Z,2988
2023-11-24T07:41:36.909Z,3370.464
2023-11-24T07:44:10.036Z,2366.496
2023-11-24T07:46:53.505Z,1972.08
2023-11-24T07:49:57.236Z,2019.888
2023-11-24T07:52:30.470Z,2007.936
2023-11-24T07:55:13.818Z,1744.992
2023-11-24T07:58:07.431Z,1984.032
2023-11-24T08:00:45.649Z,1601.568
2023-11-24T08:03:23.876Z,1529.856
2023-11-24T08:05:56.986Z,1332.648
2023-11-24T08:08:55.664Z,1470.096
2023-11-24T08:11:38.979Z,761.94
2023-11-24T08:14:12.212Z,744.012
2023-11-24T08:16:50.523Z,1326.672
2023-11-24T08:19:23.711Z,1709.136
2023-11-24T08:21:56.815Z,2593.584
2023-11-24T08:24:29.948Z,3250.944
2023-11-24T08:27:08.325Z,2330.64
2023-11-24T08:29:46.520Z,761.94
2023-11-24T08:32:19.620Z,618.516
2023-11-24T08:34:52.945Z,481.068
2023-11-24T08:37:26.018Z,564.732
2023-11-24T08:40:09.344Z,675.288
2023-11-24T08:42:47.656Z,732.06
2023-11-24T08:45:35.975Z,764.928
2023-11-24T08:48:09.198Z,1117.512
2023-11-24T08:51:02.724Z,1476.072
2023-11-24T08:53:40.961Z,711.144
2023-11-24T08:56:34.435Z,770.904
2023-11-24T08:59:07.591Z,1440.216
2023-11-24T09:02:11.471Z,1021.896
2023-11-24T09:04:44.571Z,684.252
2023-11-24T09:07:32.934Z,830.664
2023-11-24T09:10:11.117Z,1649.376
2023-11-24T09:12:44.256Z,1995.984
2023-11-24T09:15:58.269Z,2677.248
2023-11-24T09:18:36.486Z,4015.872
2023-11-24T09:21:24.898Z,8127.36
2023-11-24T09:24:03.331Z,10135.296
2023-11-24T09:26:41.389Z,7649.28
2023-11-24T09:29:11.660Z,11426.112
2023-11-24T09:32:01.477Z,19696.896
2023-11-24T09:34:45.134Z,28493.568
2023-11-24T09:37:23.791Z,14342.4
2023-11-24T09:40:02.119Z,13959.936
2023-11-24T09:42:41.983Z,13099.392
2023-11-24T09:45:13.317Z,8557.632
2023-11-24T09:47:46.287Z,8605.44
2023-11-24T09:50:19.461Z,8318.592
2023-11-24T09:52:52.674Z,8605.44
2023-11-24T09:56:01.549Z,8222.976
2023-11-24T09:58:44.854Z,9083.52
2023-11-24T10:02:06.189Z,9131.328
2023-11-24T10:04:37.129Z,10469.952
2023-11-24T10:07:25.448Z,8605.44
2023-11-24T10:10:08.833Z,11139.264
2023-11-24T10:12:57.288Z,11043.648
2023-11-24T10:15:40.676Z,11282.688
2023-11-24T10:18:20.592Z,13386.24
2023-11-24T10:20:57.459Z,10995.84
2023-11-24T10:23:30.547Z,12191.04
2023-11-24T10:26:03.659Z,11999.808
2023-11-24T10:29:22.854Z,11952
2023-11-24T10:32:21.408Z,10374.336
2023-11-24T10:34:54.720Z,6167.232
2023-11-24T10:37:53.345Z,5043.744
2023-11-24T10:40:36.656Z,3920.256
2023-11-24T10:43:14.916Z,3513.888
2023-11-24T10:45:48.046Z,3968.064
2023-11-24T10:48:31.539Z,4470.048
2023-11-24T10:51:55.595Z,4183.2
2023-11-24T10:54:34.017Z,5043.744
2023-11-24T10:57:17.330Z,4446.144
2023-11-24T11:00:36.390Z,4517.856
2023-11-24T11:03:14.747Z,3394.368
2023-11-24T11:06:38.910Z,3370.464
2023-11-24T11:09:59.815Z,3394.368
2023-11-24T11:12:32.895Z,3250.944
2023-11-24T11:15:16.275Z,3609.504
2023-11-24T11:17:49.469Z,3585.6
2023-11-24T11:20:22.827Z,3047.76
2023-11-24T11:23:05.970Z,2175.264
2023-11-24T11:25:59.610Z,1296.792
2023-11-24T11:28:42.922Z,902.376
2023-11-24T11:31:21.301Z,615.528
2023-11-24T11:34:35.229Z,761.94
2023-11-24T11:37:08.648Z,738.036
2023-11-24T11:40:01.962Z,1266.912
2023-11-24T11:42:40.251Z,2258.928
2023-11-24T11:45:28.677Z,3035.808
2023-11-24T11:48:17.059Z,2892.384
2023-11-24T11:51:25.875Z,2976.048
2023-11-24T11:54:09.344Z,2318.688
2023-11-24T11:57:13.050Z,1709.136
2023-11-24T11:59:46.183Z,1183.248
2023-11-24T12:02:39.665Z,1733.04
2023-11-24T12:05:13.122Z,1494
2023-11-24T12:07:45.946Z,2677.248
2023-11-24T12:10:19.251Z,3274.848
2023-11-24T12:12:57.461Z,4732.992
2023-11-24T12:15:30.670Z,4972.032
2023-11-24T12:18:08.863Z,4517.856
2023-11-24T12:21:12.578Z,4637.376
2023-11-24T12:23:50.811Z,4613.472
2023-11-24T12:26:34.120Z,4828.608
2023-11-24T12:29:07.289Z,4972.032
2023-11-24T12:31:59.008Z,4183.2
2023-11-24T12:34:31.889Z,7458.048
2023-11-24T12:37:05.236Z,7075.584
2023-11-24T12:39:38.333Z,10708.992
2023-11-24T12:42:11.579Z,6501.888
2023-11-24T12:44:44.633Z,4541.76
2023-11-24T12:47:41.539Z,4254.912
2023-11-24T12:50:11.517Z,3968.064
2023-11-24T12:52:49.625Z,3394.368
2023-11-24T12:55:22.774Z,4087.584
2023-11-24T12:57:55.867Z,4852.512
2023-11-24T13:00:29.093Z,4876.416
2023-11-24T13:03:02.506Z,6215.04
2023-11-24T13:05:45.577Z,11043.648
2023-11-24T13:08:20.805Z,12143.232
2023-11-24T13:11:14.356Z,10661.184
2023-11-24T13:13:47.655Z,10039.68
2023-11-24T13:16:31.199Z,13290.624
2023-11-24T13:19:14.424Z,14533.632
2023-11-24T13:21:57.760Z,11091.456
2023-11-24T13:24:30.909Z,9561.6
2023-11-24T13:27:04.047Z,8222.976
2023-11-24T13:29:47.438Z,6358.464
2023-11-24T13:32:30.836Z,4995.936
2023-11-24T13:35:04.051Z,4374.432
2023-11-24T13:37:37.062Z,4422.24
2023-11-24T13:40:15.412Z,4302.72
2023-11-24T13:42:53.506Z,4350.528
2023-11-24T13:45:47.187Z,4446.144
2023-11-24T13:48:20.173Z,3346.56
2023-11-24T13:50:53.357Z,2904.336
2023-11-24T13:53:26.496Z,2211.12
2023-11-24T13:55:59.631Z,1756.944
2023-11-24T13:58:43.056Z,1565.712
2023-11-24T14:01:16.210Z,1488.024
2023-11-24T14:03:49.272Z,1458.144
2023-11-24T14:06:42.949Z,2258.928
2023-11-24T14:09:20.954Z,2497.968
2023-11-24T14:11:54.089Z,2402.352
2023-11-24T14:14:32.378Z,2605.536
2023-11-24T14:17:10.610Z,2880.432
2023-11-24T14:19:43.742Z,2928.24
2023-11-24T14:22:42.403Z,2999.952
2023-11-24T14:25:41.026Z,2139.408
2023-11-24T14:28:15.461Z,1744.992
2023-11-24T14:31:02.780Z,1320.696
2023-11-24T14:34:26.706Z,1320.696
2023-11-24T14:37:20.205Z,1213.128
2023-11-24T14:40:03.535Z,1278.864
2023-11-24T14:42:36.596Z,1553.76
2023-11-24T14:45:20.037Z,1117.512
2023-11-24T14:48:03.464Z,914.328
2023-11-24T14:50:41.743Z,794.808
2023-11-24T14:54:16.123Z,842.616
2023-11-24T14:56:59.447Z,711.144
2023-11-24T15:00:13.522Z,702.18
2023-11-24T15:03:01.941Z,588.636
2023-11-24T15:06:00.556Z,534.852
2023-11-24T15:08:48.952Z,510.948
2023-11-24T15:11:22.111Z,457.164
2023-11-24T15:14:00.339Z,354.078
2023-11-24T15:16:38.507Z,285.354
2023-11-24T15:19:32.077Z,216.63
2023-11-24T15:22:10.372Z,161.352
2023-11-24T15:24:43.476Z,118.026
2023-11-24T15:27:16.794Z,85.158
2023-11-24T15:29:49.612Z,60.133
2023-11-24T15:32:33.114Z,40.711
2023-11-24T15:35:06.004Z,27.265
2023-11-24T15:38:09.677Z,15.687
2023-11-24T15:40:47.847Z,8.59
2023-11-24T15:43:56.665Z,4.482
2023-11-24T15:46:45.051Z,2.241
2023-11-24T15:50:04.085Z,0.373
2023-11-24T15:56:06.481Z,0
